Time;durP1;ratioP1;P1;durP2;ratioP2;P2;SDS_P1;SDS_P2;PMS_P1;PMS_P2;Temp;Humidity;BMP_temperature;BMP_pressure;BME280_temperature;BME280_humidity;BME280_pressure;Samples;Min_cycle;Max_cycle;Signal;HPM_P1;HPM_P2
2021/11/06 00:01:00;;;;;;;50.33;25.67;;;6.80;99.90;;;;;;5048964;28;20033;-59
2021/11/06 00:03:26;;;;;;;55.92;23.55;;;6.80;99.90;;;;;;5048965;28;20478;-60
2021/11/06 00:05:52;;;;;;;50.42;23.52;;;6.60;99.90;;;;;;5045977;28;20104;-58
2021/11/06 00:08:17;;;;;;;68.18;31.17;;;6.50;99.90;;;;;;5046873;28;20109;-54
2021/11/06 00:10:43;;;;;;;71.70;35.80;;;6.40;99.90;;;;;;5048769;28;20056;-58
2021/11/06 00:13:08;;;;;;;73.03;31.45;;;6.40;99.90;;;;;;5049032;28;20067;-58
2021/11/06 00:15:35;;;;;;;109.50;34.53;;;6.30;99.90;;;;;;5048827;28;20029;-57
2021/11/06 00:18:02;;;;;;;76.32;31.75;;;6.30;99.90;;;;;;5048742;28;20029;-57
2021/11/06 00:20:28;;;;;;;86.63;32.40;;;6.30;99.90;;;;;;5048229;28;20025;-60
2021/11/06 00:22:53;;;;;;;162.40;34.10;;;6.20;99.90;;;;;;5046347;28;20070;-56
2021/11/06 00:25:19;;;;;;;132.10;32.42;;;6.20;99.90;;;;;;5044413;28;20055;-52
2021/11/06 00:27:46;;;;;;;207.90;34.60;;;6.20;99.90;;;;;;5044467;28;20105;-58
2021/11/06 00:30:13;;;;;;;183.77;32.67;;;6.20;99.90;;;;;;5045162;28;20029;-59
2021/11/06 00:32:39;;;;;;;125.15;30.75;;;6.30;99.90;;;;;;5048792;28;20021;-60
2021/11/06 00:35:08;;;;;;;152.50;32.95;;;6.30;99.90;;;;;;5048275;28;20108;-58
2021/11/06 00:37:33;;;;;;;73.68;28.83;;;6.40;99.90;;;;;;5048173;28;20384;-58
2021/11/06 00:39:59;;;;;;;91.65;30.63;;;6.50;99.90;;;;;;5045771;28;20088;-57
2021/11/06 00:42:25;;;;;;;65.45;29.60;;;6.60;99.90;;;;;;5046407;28;20029;-55
2021/11/06 00:44:50;;;;;;;55.92;27.27;;;6.70;99.90;;;;;;5048761;28;20482;-59
2021/11/06 00:47:16;;;;;;;68.03;28.40;;;6.80;99.90;;;;;;5049258;28;20025;-59
2021/11/06 00:49:41;;;;;;;74.05;29.88;;;6.90;99.90;;;;;;5048070;28;20067;-58
2021/11/06 00:52:08;;;;;;;64.85;27.80;;;6.90;99.90;;;;;;5048105;28;20017;-58
2021/11/06 00:54:34;;;;;;;73.53;28.15;;;7.00;99.90;;;;;;5051534;28;20411;-56
2021/11/06 00:57:00;;;;;;;64.57;27.05;;;7.10;99.90;;;;;;5050672;28;20028;-59
2021/11/06 00:59:25;;;;;;;67.65;27.15;;;7.10;99.90;;;;;;5045940;28;20037;-59
2021/11/06 01:01:51;;;;;;;61.90;27.73;;;7.10;99.90;;;;;;5050928;28;20025;-58
2021/11/06 01:04:18;;;;;;;59.60;27.00;;;7.10;99.90;;;;;;5045379;28;20026;-57
2021/11/06 01:06:44;;;;;;;63.80;24.77;;;7.20;99.90;;;;;;5043352;28;20112;-62
2021/11/06 01:09:09;;;;;;;49.70;24.30;;;7.20;99.90;;;;;;5047161;28;20167;-54
2021/11/06 01:11:35;;;;;;;57.45;25.33;;;7.20;99.90;;;;;;5051090;28;20391;-62
2021/11/06 01:14:01;;;;;;;58.97;25.40;;;7.20;99.90;;;;;;5048774;28;20021;-56
2021/11/06 01:16:27;;;;;;;58.90;25.40;;;7.20;99.90;;;;;;5045676;28;20487;-54
2021/11/06 01:18:53;;;;;;;53.17;25.98;;;7.20;99.90;;;;;;5050142;28;20103;-57
2021/11/06 01:21:18;;;;;;;52.95;23.67;;;7.20;99.90;;;;;;5046176;28;20045;-56
2021/11/06 01:23:44;;;;;;;48.30;23.52;;;7.10;99.90;;;;;;5045923;28;20035;-58
2021/11/06 01:26:10;;;;;;;61.10;22.85;;;7.10;99.90;;;;;;5051779;28;20040;-58
2021/11/06 01:28:36;;;;;;;56.13;24.92;;;7.00;99.90;;;;;;5051648;28;20028;-61
2021/11/06 01:31:01;;;;;;;60.10;23.98;;;7.00;99.90;;;;;;5051192;28;20048;-58
2021/11/06 01:33:27;;;;;;;61.67;24.45;;;6.90;99.90;;;;;;5052180;28;20023;-59
2021/11/06 01:35:53;;;;;;;48.92;22.95;;;6.90;99.90;;;;;;5051795;28;20568;-54
2021/11/06 01:38:18;;;;;;;47.25;23.20;;;6.90;99.90;;;;;;5051724;28;20032;-54
2021/11/06 01:40:46;;;;;;;63.70;24.83;;;6.80;99.90;;;;;;5047569;28;20017;-54
2021/11/06 01:43:12;;;;;;;62.05;25.08;;;6.70;99.90;;;;;;5051121;28;20047;-57
2021/11/06 01:45:37;;;;;;;52.00;24.17;;;6.60;99.90;;;;;;5049172;28;20573;-53
2021/11/06 01:48:04;;;;;;;57.05;25.65;;;6.60;99.90;;;;;;5050257;28;20047;-57
2021/11/06 01:50:30;;;;;;;56.03;23.92;;;6.50;99.90;;;;;;5051268;28;20087;-59
2021/11/06 01:52:56;;;;;;;53.25;23.70;;;6.50;99.90;;;;;;5051820;28;20029;-54
2021/11/06 01:55:21;;;;;;;52.13;25.33;;;6.40;99.90;;;;;;5051976;28;20100;-52
2021/11/06 01:57:48;;;;;;;48.60;23.17;;;6.30;99.90;;;;;;5050697;28;20029;-56
2021/11/06 02:00:24;;;;;;;61.08;24.77;;;6.20;99.90;;;;;;5050964;28;20029;-59
2021/11/06 02:02:51;;;;;;;45.78;22.95;;;6.10;99.90;;;;;;5047873;28;20055;-59
2021/11/06 02:05:17;;;;;;;54.33;23.05;;;6.00;99.90;;;;;;5047853;28;20036;-57
2021/11/06 02:07:43;;;;;;;41.80;21.25;;;6.00;99.90;;;;;;5035555;28;20111;-56
2021/11/06 02:10:10;;;;;;;54.80;23.67;;;5.90;99.90;;;;;;5039926;28;20161;-60
2021/11/06 02:12:37;;;;;;;52.15;23.15;;;5.80;99.90;;;;;;5039681;28;20079;-56
2021/11/06 02:15:05;;;;;;;49.00;23.08;;;5.70;99.90;;;;;;5043551;28;20056;-57
2021/11/06 02:17:31;;;;;;;58.25;24.42;;;5.70;99.90;;;;;;5037026;28;20037;-60
2021/11/06 02:19:56;;;;;;;58.67;24.33;;;5.60;99.90;;;;;;5029091;28;20064;-59
2021/11/06 02:22:22;;;;;;;42.85;22.90;;;5.50;99.90;;;;;;5003654;28;20467;-58
2021/11/06 02:24:49;;;;;;;53.72;22.77;;;5.50;99.90;;;;;;5030644;28;20029;-60
2021/11/06 02:27:14;;;;;;;51.80;23.30;;;5.50;99.90;;;;;;5028571;28;20406;-58
2021/11/06 02:29:40;;;;;;;53.80;23.60;;;5.40;99.90;;;;;;5025531;28;20041;-60
2021/11/06 02:32:07;;;;;;;64.97;24.35;;;5.30;99.90;;;;;;5028711;28;20072;-57
2021/11/06 02:34:33;;;;;;;46.95;22.20;;;5.30;99.90;;;;;;5030159;28;20132;-56
2021/11/06 02:36:59;;;;;;;53.40;23.17;;;5.30;99.90;;;;;;5028740;28;20550;-57
2021/11/06 02:39:24;;;;;;;66.82;24.08;;;5.20;99.90;;;;;;5028786;28;20534;-59
2021/11/06 02:41:58;;;;;;;84.93;27.42;;;5.20;99.90;;;;;;5028653;28;20034;-55
2021/11/06 02:44:23;;;;;;;62.33;23.90;;;5.20;99.90;;;;;;5029977;28;20095;-60
2021/11/06 02:46:49;;;;;;;58.22;23.60;;;5.20;99.90;;;;;;5027926;28;20029;-57
2021/11/06 02:49:14;;;;;;;62.97;25.67;;;5.20;99.90;;;;;;5027678;28;20037;-60
2021/11/06 02:51:40;;;;;;;63.08;25.60;;;5.20;99.90;;;;;;5030397;28;20098;-58
2021/11/06 02:54:06;;;;;;;60.08;23.63;;;5.20;99.90;;;;;;5030064;28;20071;-60
2021/11/06 02:56:31;;;;;;;70.47;25.13;;;5.20;99.90;;;;;;5026459;28;20021;-57
2021/11/06 02:58:57;;;;;;;53.33;23.48;;;5.20;99.90;;;;;;5027888;28;20057;-58
2021/11/06 03:01:24;;;;;;;59.35;24.35;;;5.10;99.90;;;;;;5030737;28;20488;-61
2021/11/06 03:03:49;;;;;;;60.22;25.10;;;5.10;99.90;;;;;;5028318;28;20033;-58
2021/11/06 03:06:15;;;;;;;62.70;24.45;;;5.10;99.90;;;;;;5029377;28;20033;-58
2021/11/06 03:08:41;;;;;;;63.28;23.27;;;5.00;99.90;;;;;;5029233;28;20036;-60
2021/11/06 03:11:07;;;;;;;57.90;23.27;;;5.00;99.90;;;;;;5029899;28;20030;-59
2021/11/06 03:13:33;;;;;;;63.90;22.73;;;5.00;99.90;;;;;;5029177;28;20017;-59
2021/11/06 03:15:59;;;;;;;63.42;24.85;;;5.00;99.90;;;;;;5019291;28;20037;-57
2021/11/06 03:18:24;;;;;;;63.30;26.40;;;5.00;99.90;;;;;;5027700;28;20029;-60
2021/11/06 03:20:50;;;;;;;65.38;25.30;;;4.90;99.90;;;;;;5024783;28;20030;-58
2021/11/06 03:23:16;;;;;;;66.88;24.33;;;4.90;99.90;;;;;;5022293;28;20057;-57
2021/11/06 03:25:42;;;;;;;62.97;23.30;;;4.90;99.90;;;;;;5030738;28;20018;-59
2021/11/06 03:28:07;;;;;;;67.40;24.73;;;4.90;99.90;;;;;;5030264;28;20100;-55
2021/11/06 03:30:33;;;;;;;72.95;26.67;;;4.80;99.90;;;;;;5031011;28;20032;-57
2021/11/06 03:32:59;;;;;;;65.03;24.42;;;4.80;99.90;;;;;;5029010;28;20182;-60
2021/11/06 03:35:24;;;;;;;57.83;22.95;;;4.80;99.90;;;;;;5022395;28;20021;-59
2021/11/06 03:37:50;;;;;;;66.38;26.20;;;4.70;99.90;;;;;;5027352;28;20092;-56
2021/11/06 03:40:16;;;;;;;76.03;25.40;;;4.70;99.90;;;;;;5026926;28;20037;-56
2021/11/06 03:42:42;;;;;;;71.25;25.90;;;4.70;99.90;;;;;;5028415;28;20029;-58
2021/11/06 03:45:09;;;;;;;64.72;26.67;;;4.60;99.90;;;;;;5030097;28;20032;-56
2021/11/06 03:47:34;;;;;;;65.50;25.77;;;4.60;99.90;;;;;;5029322;28;20060;-57
2021/11/06 03:50:02;;;;;;;62.67;23.35;;;4.60;99.90;;;;;;5028410;28;20030;-57
2021/11/06 03:52:27;;;;;;;63.15;24.60;;;4.60;99.90;;;;;;5029825;28;20021;-59
2021/11/06 03:54:53;;;;;;;64.80;24.83;;;4.50;99.90;;;;;;5024861;28;20620;-58
2021/11/06 03:57:18;;;;;;;63.28;25.90;;;4.50;99.90;;;;;;5029111;28;20371;-58
2021/11/06 03:59:44;;;;;;;66.60;25.42;;;4.50;99.90;;;;;;5029467;28;20390;-58
2021/11/06 04:02:09;;;;;;;66.18;25.95;;;4.50;99.90;;;;;;5027157;28;20025;-57
2021/11/06 04:04:35;;;;;;;73.80;27.00;;;4.50;99.90;;;;;;5029824;28;20044;-58
2021/11/06 04:07:01;;;;;;;70.45;26.27;;;4.40;99.90;;;;;;5025594;28;20373;-57
2021/11/06 04:09:26;;;;;;;67.53;26.48;;;4.40;99.90;;;;;;5025595;28;20495;-61
2021/11/06 04:11:52;;;;;;;71.10;26.35;;;4.40;99.90;;;;;;5018096;28;20026;-59
2021/11/06 04:14:17;;;;;;;63.97;26.35;;;4.40;99.90;;;;;;5011822;28;20562;-54
2021/11/06 04:16:43;;;;;;;69.78;26.90;;;4.40;99.90;;;;;;5025222;28;20041;-58
2021/11/06 04:19:10;;;;;;;63.30;24.45;;;4.40;99.90;;;;;;5016719;28;20033;-53
2021/11/06 04:21:36;;;;;;;67.63;27.05;;;4.30;99.90;;;;;;5024865;28;20045;-60
2021/11/06 04:24:01;;;;;;;68.55;26.60;;;4.30;99.90;;;;;;5027783;28;20071;-58
2021/11/06 04:26:27;;;;;;;67.40;27.20;;;4.30;99.90;;;;;;5023487;28;20025;-56
2021/11/06 04:28:53;;;;;;;67.65;27.50;;;4.30;99.90;;;;;;5026839;28;20025;-58
2021/11/06 04:31:18;;;;;;;67.25;27.77;;;4.20;99.90;;;;;;5024552;28;20018;-59
2021/11/06 04:33:44;;;;;;;67.13;27.25;;;4.20;99.90;;;;;;5026195;28;20106;-59
2021/11/06 04:36:09;;;;;;;74.10;29.98;;;4.20;99.90;;;;;;5024694;28;20495;-57
2021/11/06 04:38:36;;;;;;;62.67;27.88;;;4.20;99.90;;;;;;5024014;28;20040;-57
2021/11/06 04:41:02;;;;;;;79.13;30.30;;;4.20;99.90;;;;;;5018941;28;20034;-56
2021/11/06 04:43:28;;;;;;;68.43;29.30;;;4.20;99.90;;;;;;5026193;28;20399;-58
2021/11/06 04:45:53;;;;;;;82.93;31.77;;;4.20;99.90;;;;;;5026634;28;20030;-58
2021/11/06 04:48:19;;;;;;;68.90;28.58;;;4.20;99.90;;;;;;5024605;28;20788;-56
2021/11/06 04:50:45;;;;;;;75.00;28.80;;;4.20;99.90;;;;;;5027941;28;20128;-58
2021/11/06 04:53:10;;;;;;;68.93;28.38;;;4.20;99.90;;;;;;5029331;28;20432;-57
2021/11/06 04:55:36;;;;;;;79.43;30.23;;;4.20;99.90;;;;;;5027390;28;20522;-59
2021/11/06 04:58:02;;;;;;;70.25;28.52;;;4.20;99.90;;;;;;5028858;28;20025;-56
2021/11/06 05:00:28;;;;;;;79.65;27.25;;;4.10;99.90;;;;;;5025029;28;20036;-61
2021/11/06 05:02:53;;;;;;;63.03;25.65;;;4.10;99.90;;;;;;5027388;28;20116;-57
2021/11/06 05:05:19;;;;;;;53.28;23.27;;;4.00;99.90;;;;;;5018375;28;20069;-56
2021/11/06 05:07:45;;;;;;;64.80;27.52;;;4.00;99.90;;;;;;5024516;28;20030;-58
2021/11/06 05:10:11;;;;;;;54.55;23.50;;;3.90;99.90;;;;;;5018326;28;20054;-57
2021/11/06 05:12:37;;;;;;;53.63;24.35;;;3.90;99.90;;;;;;5028004;28;20025;-60
2021/11/06 05:15:04;;;;;;;55.92;24.15;;;3.90;99.90;;;;;;5028313;28;20109;-60
2021/11/06 05:17:30;;;;;;;56.20;25.23;;;3.90;99.90;;;;;;5021187;28;20037;-58
2021/11/06 05:19:57;;;;;;;53.08;23.17;;;3.90;99.90;;;;;;5027503;28;20037;-60
2021/11/06 05:22:23;;;;;;;54.67;24.60;;;3.90;99.90;;;;;;5027635;28;20570;-59
2021/11/06 05:24:49;;;;;;;50.67;23.88;;;3.90;99.90;;;;;;5026769;28;20029;-59
2021/11/06 05:27:14;;;;;;;54.95;23.38;;;3.80;99.90;;;;;;5026426;28;20036;-59
2021/11/06 05:29:40;;;;;;;50.63;22.63;;;3.80;99.90;;;;;;5023833;28;20033;-58
2021/11/06 05:32:06;;;;;;;59.03;21.58;;;3.70;99.90;;;;;;5016910;28;20022;-60
2021/11/06 05:34:32;;;;;;;53.78;21.88;;;3.70;99.90;;;;;;5025309;28;20182;-58
2021/11/06 05:36:57;;;;;;;42.45;19.15;;;3.70;99.90;;;;;;5027444;28;20395;-59
2021/11/06 05:39:23;;;;;;;43.58;20.52;;;3.70;99.90;;;;;;5027046;28;20041;-60
2021/11/06 05:41:49;;;;;;;47.88;21.05;;;3.60;99.90;;;;;;5022009;28;20056;-60
2021/11/06 05:44:14;;;;;;;50.85;21.38;;;3.60;99.90;;;;;;5023187;28;20030;-59
2021/11/06 05:46:40;;;;;;;49.80;21.15;;;3.60;99.90;;;;;;5031455;28;20037;-59
2021/11/06 05:49:06;;;;;;;40.88;19.98;;;3.50;99.90;;;;;;5029091;28;20048;-57
2021/11/06 05:51:32;;;;;;;41.35;19.77;;;3.50;99.90;;;;;;5024203;28;20496;-59
2021/11/06 05:53:57;;;;;;;40.90;19.25;;;3.50;99.90;;;;;;5024496;28;20147;-59
2021/11/06 05:56:23;;;;;;;44.22;18.60;;;3.40;99.90;;;;;;5027872;28;20033;-58
2021/11/06 05:58:48;;;;;;;51.85;21.00;;;3.40;99.90;;;;;;5031826;28;20022;-57
2021/11/06 06:01:14;;;;;;;47.10;18.90;;;3.40;99.90;;;;;;5031303;28;20036;-58
2021/11/06 06:03:39;;;;;;;44.65;18.15;;;3.40;99.90;;;;;;5029282;28;20491;-58
2021/11/06 06:06:05;;;;;;;44.00;18.60;;;3.40;99.90;;;;;;5024857;28;20056;-57
2021/11/06 06:08:31;;;;;;;33.47;17.80;;;3.40;99.90;;;;;;5024477;28;20104;-60
2021/11/06 06:10:56;;;;;;;48.45;20.90;;;3.30;99.90;;;;;;5027746;28;20048;-57
2021/11/06 06:13:22;;;;;;;51.78;20.63;;;3.30;99.90;;;;;;5032059;28;20018;-58
2021/11/06 06:15:48;;;;;;;48.63;20.38;;;3.30;99.90;;;;;;5025840;28;20525;-54
2021/11/06 06:18:14;;;;;;;49.35;20.05;;;3.30;99.90;;;;;;5023825;28;20049;-60
2021/11/06 06:20:40;;;;;;;44.95;21.35;;;3.30;99.90;;;;;;5028961;28;20029;-57
2021/11/06 06:23:05;;;;;;;56.70;23.63;;;3.30;99.90;;;;;;5030911;28;20403;-57
2021/11/06 06:25:31;;;;;;;46.25;21.48;;;3.30;99.90;;;;;;5027711;28;20494;-59
2021/11/06 06:27:56;;;;;;;44.28;19.17;;;3.40;99.90;;;;;;5026233;28;20034;-57
2021/11/06 06:30:22;;;;;;;41.50;19.00;;;3.40;99.90;;;;;;5025133;28;20064;-58
2021/11/06 06:32:48;;;;;;;44.97;20.35;;;3.40;99.90;;;;;;5026955;28;20407;-58
2021/11/06 06:35:15;;;;;;;51.10;22.13;;;3.40;99.90;;;;;;5029328;28;20025;-57
2021/11/06 06:37:40;;;;;;;40.33;19.88;;;3.40;99.90;;;;;;5029464;28;20025;-57
2021/11/06 06:40:07;;;;;;;37.22;18.75;;;3.40;99.90;;;;;;5023338;28;20025;-57
2021/11/06 06:42:33;;;;;;;43.17;19.88;;;3.40;99.90;;;;;;5019536;28;20123;-54
2021/11/06 06:44:59;;;;;;;36.22;18.38;;;3.40;99.90;;;;;;5025328;28;20140;-58
2021/11/06 06:47:25;;;;;;;36.70;18.40;;;3.40;99.90;;;;;;5023293;28;20519;-58
2021/11/06 06:49:51;;;;;;;40.80;19.58;;;3.40;99.90;;;;;;5027425;28;20522;-58
2021/11/06 06:52:17;;;;;;;45.25;22.63;;;3.40;99.90;;;;;;5028239;28;20033;-57
2021/11/06 06:54:43;;;;;;;55.47;27.95;;;3.50;99.90;;;;;;5018583;28;20484;-52
2021/11/06 06:57:08;;;;;;;64.45;31.40;;;3.60;99.90;;;;;;5027370;28;20079;-56
2021/11/06 06:59:35;;;;;;;75.30;38.97;;;3.60;99.90;;;;;;5028816;28;20029;-58
2021/11/06 07:02:05;;;;;;;148.02;75.63;;;3.70;99.90;;;;;;5030419;28;20022;-60
2021/11/06 07:04:31;;;;;;;134.73;67.13;;;3.80;99.90;;;;;;5022060;28;20029;-57
2021/11/06 07:06:57;;;;;;;162.32;77.57;;;3.80;99.90;;;;;;5027091;28;20033;-60
2021/11/06 07:09:23;;;;;;;178.27;78.43;;;3.90;99.90;;;;;;5023422;28;20376;-56
2021/11/06 07:11:50;;;;;;;191.57;78.20;;;3.90;99.90;;;;;;5020429;28;20173;-61
2021/11/06 07:14:16;;;;;;;168.27;69.10;;;4.00;99.90;;;;;;5025276;28;20029;-59
2021/11/06 07:16:43;;;;;;;137.30;56.25;;;4.10;99.90;;;;;;5022550;28;20387;-59
2021/11/06 07:19:09;;;;;;;95.40;39.88;;;4.10;99.90;;;;;;5018979;28;20052;-60
2021/11/06 07:21:35;;;;;;;66.13;31.80;;;4.20;99.90;;;;;;5025272;28;20037;-60
2021/11/06 07:24:00;;;;;;;73.38;35.28;;;4.20;99.90;;;;;;5028432;28;20040;-59
2021/11/06 07:26:26;;;;;;;58.60;26.83;;;4.30;99.90;;;;;;5024417;28;20052;-58
2021/11/06 07:28:51;;;;;;;44.95;21.35;;;4.30;99.90;;;;;;5026796;28;20164;-56
2021/11/06 07:31:17;;;;;;;38.75;19.15;;;4.40;99.90;;;;;;5020170;28;20037;-56
2021/11/06 07:33:43;;;;;;;38.25;18.27;;;4.40;99.90;;;;;;5024222;28;20108;-59
2021/11/06 07:36:10;;;;;;;53.15;21.55;;;4.40;99.90;;;;;;5024394;28;20091;-57
2021/11/06 07:38:36;;;;;;;42.90;22.80;;;4.40;99.90;;;;;;5026943;28;20033;-58
2021/11/06 07:41:01;;;;;;;39.67;20.15;;;4.50;99.90;;;;;;5030073;28;20483;-59
2021/11/06 07:43:27;;;;;;;38.60;21.02;;;4.50;99.90;;;;;;5029908;28;20026;-59
2021/11/06 07:45:53;;;;;;;36.50;18.38;;;4.50;99.90;;;;;;5027957;28;20099;-59
2021/11/06 07:48:19;;;;;;;34.13;16.85;;;4.50;99.90;;;;;;5027129;28;20096;-58
2021/11/06 07:50:44;;;;;;;32.60;16.00;;;4.60;99.90;;;;;;5022679;28;20032;-61
2021/11/06 07:53:10;;;;;;;31.20;16.60;;;4.50;99.90;;;;;;5018524;28;20560;-58
2021/11/06 07:55:37;;;;;;;33.53;15.00;;;4.60;99.90;;;;;;5028042;28;20075;-58
2021/11/06 07:58:04;;;;;;;23.42;12.88;;;4.70;99.90;;;;;;5024367;28;20040;-59
2021/11/06 08:00:29;;;;;;;24.13;12.90;;;4.70;99.90;;;;;;5006934;28;20395;-61
2021/11/06 08:02:55;;;;;;;21.13;13.73;;;4.70;99.90;;;;;;5024448;28;20013;-59
2021/11/06 08:05:21;;;;;;;24.27;14.30;;;4.80;99.90;;;;;;5019094;28;20029;-60
2021/11/06 08:07:47;;;;;;;28.23;14.85;;;4.90;99.90;;;;;;5029083;28;20124;-60
2021/11/06 08:10:13;;;;;;;29.25;14.70;;;5.00;99.90;;;;;;5022891;28;20117;-57
2021/11/06 08:12:40;;;;;;;26.45;15.50;;;5.10;99.90;;;;;;5019597;28;20017;-59
2021/11/06 08:15:08;;;;;;;29.65;16.42;;;5.20;99.90;;;;;;5021433;28;20483;-59
2021/11/06 08:17:34;;;;;;;32.83;16.60;;;5.30;99.90;;;;;;5021940;28;20080;-60
2021/11/06 08:19:59;;;;;;;22.27;14.48;;;5.40;99.90;;;;;;5026288;28;20041;-58
2021/11/06 08:22:25;;;;;;;25.67;14.10;;;5.50;99.90;;;;;;5018461;28;20112;-58
2021/11/06 08:24:51;;;;;;;24.33;14.52;;;5.50;99.90;;;;;;5029688;28;20392;-58
2021/11/06 08:27:17;;;;;;;23.40;13.93;;;5.60;99.90;;;;;;5024573;28;20059;-58
2021/11/06 08:29:42;;;;;;;29.73;14.30;;;5.70;99.90;;;;;;5042848;28;20026;-55
2021/11/06 08:32:08;;;;;;;26.77;14.77;;;5.70;99.90;;;;;;5026452;28;20022;-59
2021/11/06 08:34:34;;;;;;;22.13;13.60;;;5.70;99.90;;;;;;5027084;28;20025;-59
2021/11/06 08:37:01;;;;;;;20.00;11.98;;;5.80;99.90;;;;;;5019299;28;20488;-58
2021/11/06 08:39:27;;;;;;;20.58;11.48;;;5.90;99.90;;;;;;5028683;28;20041;-61
2021/11/06 08:41:55;;;;;;;18.48;12.15;;;6.00;99.90;;;;;;5018275;28;20079;-60
2021/11/06 08:44:22;;;;;;;24.88;12.20;;;6.10;99.90;;;;;;5024079;28;20025;-61
2021/11/06 08:46:50;;;;;;;16.88;11.63;;;6.20;99.90;;;;;;5025657;28;20037;-59
2021/11/06 08:49:17;;;;;;;18.90;11.50;;;6.30;99.90;;;;;;5023962;28;20556;-60
2021/11/06 08:51:47;;;;;;;16.23;10.68;;;6.30;99.90;;;;;;5026201;28;20029;-58
2021/11/06 08:54:15;;;;;;;19.98;9.90;;;6.40;99.90;;;;;;5021910;28;20026;-61
2021/11/06 08:56:42;;;;;;;22.17;10.88;;;6.40;99.90;;;;;;5023210;28;20029;-56
2021/11/06 08:59:09;;;;;;;16.25;10.18;;;6.40;99.90;;;;;;5022753;28;20036;-59
2021/11/06 09:01:35;;;;;;;17.05;10.60;;;6.50;99.90;;;;;;5015464;28;20051;-56
2021/11/06 09:04:00;;;;;;;17.52;12.65;;;6.50;99.90;;;;;;5024478;28;20041;-61
2021/11/06 09:06:26;;;;;;;19.85;11.82;;;6.60;99.90;;;;;;5021360;28;20033;-60
2021/11/06 09:08:52;;;;;;;16.63;10.57;;;6.60;99.90;;;;;;5024070;28;20017;-59
2021/11/06 09:11:18;;;;;;;16.95;10.10;;;6.60;99.90;;;;;;5019385;28;20033;-58
2021/11/06 09:13:50;;;;;;;48.10;26.75;;;6.70;99.90;;;;;;5026767;28;20029;-58
2021/11/06 09:16:16;;;;;;;54.35;25.92;;;6.70;99.90;;;;;;5031409;28;20426;-60
2021/11/06 09:18:42;;;;;;;59.33;31.65;;;6.90;99.90;;;;;;5027756;28;20029;-60
2021/11/06 09:21:10;;;;;;;25.10;15.55;;;7.10;99.90;;;;;;5025904;28;20034;-60
2021/11/06 09:23:38;;;;;;;19.40;12.95;;;7.50;99.90;;;;;;5029718;28;20030;-62
2021/11/06 09:26:04;;;;;;;14.10;9.60;;;7.80;99.90;;;;;;5030000;28;20491;-61
2021/11/06 09:28:32;;;;;;;11.13;7.97;;;8.30;99.90;;;;;;5031450;28;20101;-60
2021/11/06 09:30:57;;;;;;;13.70;7.63;;;8.60;99.90;;;;;;5028831;28;20079;-61
2021/11/06 09:33:23;;;;;;;18.00;11.57;;;8.80;99.90;;;;;;5024346;28;20017;-62
2021/11/06 09:35:49;;;;;;;8.15;6.57;;;8.80;99.90;;;;;;5028420;28;20025;-59
2021/11/06 09:38:15;;;;;;;8.60;6.63;;;9.00;99.90;;;;;;5030624;28;20506;-61
2021/11/06 09:40:41;;;;;;;11.60;7.75;;;9.20;99.90;;;;;;5029841;28;20034;-61
2021/11/06 09:43:06;;;;;;;11.88;6.13;;;9.50;99.90;;;;;;5026025;28;20527;-62
2021/11/06 09:45:32;;;;;;;15.70;6.25;;;9.60;99.90;;;;;;5022427;28;20064;-59
2021/11/06 09:47:58;;;;;;;9.38;6.50;;;9.60;99.90;;;;;;5024364;28;20037;-59
2021/11/06 09:50:26;;;;;;;19.08;12.50;;;9.80;99.90;;;;;;5030506;28;20548;-61
2021/11/06 09:52:53;;;;;;;15.98;9.30;;;9.60;99.90;;;;;;5028358;28;20090;-62
2021/11/06 09:55:21;;;;;;;11.10;7.47;;;9.70;99.90;;;;;;5029879;28;20045;-62
2021/11/06 09:57:48;;;;;;;15.10;8.02;;;9.60;99.90;;;;;;5018764;28;20068;-60
2021/11/06 10:00:15;;;;;;;12.38;7.22;;;9.60;99.90;;;;;;5028152;28;20034;-61
2021/11/06 10:02:42;;;;;;;12.50;6.88;;;9.50;99.90;;;;;;5020559;28;20034;-60
2021/11/06 10:05:08;;;;;;;32.58;16.83;;;9.50;99.90;;;;;;5025124;28;20063;-57
2021/11/06 10:07:35;;;;;;;19.95;11.18;;;9.40;99.90;;;;;;5022165;28;20057;-57
2021/11/06 10:10:14;;;;;;;16.75;8.15;;;9.20;99.90;;;;;;5029215;28;20052;-60
2021/11/06 10:12:48;;;;;;;10.68;6.38;;;9.20;99.90;;;;;;5017624;28;20044;-58
2021/11/06 10:15:15;;;;;;;17.15;11.00;;;9.30;99.90;;;;;;5024986;28;20029;-58
2021/11/06 10:17:42;;;;;;;13.40;6.63;;;9.20;99.90;;;;;;5026575;28;20033;-59
2021/11/06 10:20:40;;;;;;;7.32;6.00;;;9.20;99.90;;;;;;5032107;28;20483;-60
2021/11/06 10:23:07;;;;;;;16.83;8.98;;;9.10;99.90;;;;;;4987276;28;20041;-59
2021/11/06 10:25:34;;;;;;;13.90;8.60;;;9.20;99.90;;;;;;5030680;28;20064;-56
2021/11/06 10:28:06;;;;;;;14.02;9.18;;;9.20;99.90;;;;;;5027895;28;20041;-60
2021/11/06 10:30:38;;;;;;;13.43;6.93;;;9.30;99.90;;;;;;5029875;28;20025;-55
2021/11/06 10:33:13;;;;;;;8.32;5.78;;;9.50;99.90;;;;;;5022704;28;20116;-60
2021/11/06 10:35:51;;;;;;;13.23;7.07;;;9.70;99.90;;;;;;5023877;28;20053;-59
2021/11/06 10:38:22;;;;;;;8.55;5.70;;;9.80;99.90;;;;;;5024295;28;20030;-60
2021/11/06 10:40:59;;;;;;;10.20;6.97;;;10.00;99.90;;;;;;5028336;28;20561;-60
2021/11/06 10:43:26;;;;;;;13.30;6.50;;;10.20;99.90;;;;;;5029789;28;20108;-58
2021/11/06 10:45:59;;;;;;;12.98;7.68;;;10.30;99.90;;;;;;5030411;28;20029;-59
2021/11/06 10:48:30;;;;;;;10.73;7.28;;;10.40;99.90;;;;;;5025440;28;20033;-57
2021/11/06 10:51:09;;;;;;;10.52;6.53;;;10.40;99.90;;;;;;5025545;28;20112;-60
2021/11/06 10:53:44;;;;;;;12.98;5.78;;;10.50;99.90;;;;;;5022365;28;20052;-60
2021/11/06 10:56:34;;;;;;;43.83;26.55;;;10.70;99.90;;;;;;5023910;28;20508;-60
2021/11/06 10:59:16;;;;;;;12.80;6.80;;;10.70;99.90;;;;;;5028554;28;20817;-60
2021/11/06 11:01:52;;;;;;;17.80;8.35;;;10.90;99.90;;;;;;5028914;28;20052;-59
2021/11/06 11:04:19;;;;;;;15.45;8.70;;;11.10;99.90;;;;;;5023281;28;20099;-60
2021/11/06 11:06:53;;;;;;;18.58;11.60;;;10.90;99.90;;;;;;5028770;28;20033;-59
2021/11/06 11:09:25;;;;;;;9.75;5.80;;;10.80;99.90;;;;;;5026924;28;20041;-60
2021/11/06 11:11:52;;;;;;;34.50;6.03;;;10.70;99.90;;;;;;5025452;28;20148;-59
2021/11/06 11:14:24;;;;;;;8.95;4.72;;;10.70;99.90;;;;;;5023185;28;20049;-57
2021/11/06 11:16:54;;;;;;;15.85;5.93;;;10.70;99.90;;;;;;5029580;28;20075;-59
2021/11/06 11:19:41;;;;;;;9.70;5.65;;;10.70;99.90;;;;;;5027917;28;20037;-60
2021/11/06 11:22:19;;;;;;;7.60;5.10;;;10.70;99.90;;;;;;5025822;28;20032;-59
2021/11/06 11:24:47;;;;;;;14.18;7.95;;;10.80;99.90;;;;;;5028659;28;20046;-57
2021/11/06 11:27:13;;;;;;;7.22;4.07;;;10.80;99.90;;;;;;5027506;28;20025;-59
2021/11/06 11:29:39;;;;;;;15.93;10.18;;;10.80;99.90;;;;;;5025696;28;20032;-59
2021/11/06 11:32:05;;;;;;;9.02;5.72;;;10.80;99.90;;;;;;5024159;28;20047;-57
2021/11/06 11:34:31;;;;;;;10.23;4.43;;;10.90;99.90;;;;;;5024347;28;20392;-59
2021/11/06 11:36:58;;;;;;;11.65;4.95;;;11.00;99.90;;;;;;5028442;28;20024;-56
2021/11/06 11:39:25;;;;;;;4.90;3.50;;;11.00;99.90;;;;;;5023251;28;20036;-60
2021/11/06 11:41:57;;;;;;;5.85;3.40;;;11.30;99.90;;;;;;5025722;28;20033;-54
2021/11/06 11:44:44;;;;;;;6.80;2.97;;;11.50;99.90;;;;;;5027505;28;20117;-59
2021/11/06 11:47:16;;;;;;;4.13;2.50;;;11.50;99.90;;;;;;5017665;28;20044;-59
2021/11/06 11:49:44;;;;;;;2.75;1.77;;;11.50;99.90;;;;;;5027182;28;20108;-61
2021/11/06 11:52:25;;;;;;;5.00;2.38;;;11.40;99.90;;;;;;5024374;28;20028;-57
2021/11/06 11:55:05;;;;;;;15.88;7.78;;;11.30;99.90;;;;;;5023173;28;20044;-59
2021/11/06 11:57:36;;;;;;;10.82;4.72;;;11.20;99.90;;;;;;5024556;28;20095;-55
2021/11/06 12:00:21;;;;;;;10.10;2.58;;;11.10;99.90;;;;;;5029893;28;20025;-60
2021/11/06 12:03:00;;;;;;;17.10;8.02;;;11.00;99.90;;;;;;5024588;28;20040;-60
2021/11/06 12:05:26;;;;;;;25.15;8.57;;;10.90;99.90;;;;;;5017854;28;20036;-60
2021/11/06 12:08:10;;;;;;;41.90;17.65;;;10.90;99.90;;;;;;5028316;28;20040;-59
2021/11/06 12:10:46;;;;;;;31.00;14.38;;;10.90;99.90;;;;;;5044742;28;20025;-61
2021/11/06 12:13:32;;;;;;;29.73;12.50;;;10.90;99.90;;;;;;5045014;28;20038;-58
2021/11/06 12:16:04;;;;;;;18.38;10.48;;;10.90;99.90;;;;;;5045161;28;20037;-59
2021/11/06 12:18:32;;;;;;;8.77;4.57;;;11.00;99.90;;;;;;5039235;28;20024;-60
2021/11/06 12:23:36;;;;;;;5.47;2.65;;;11.00;99.90;;;;;;5030715;28;20159;-58
2021/11/06 12:26:27;;;;;;;3.53;1.98;;;11.00;99.90;;;;;;5047865;28;20028;-59
2021/11/06 12:29:05;;;;;;;5.90;3.08;;;11.10;99.90;;;;;;5044513;28;20044;-60
2021/11/06 12:31:39;;;;;;;9.30;2.80;;;11.10;99.90;;;;;;5048612;28;20108;-59
2021/11/06 12:34:07;;;;;;;3.63;1.60;;;11.20;99.90;;;;;;5044288;28;20068;-60
2021/11/06 12:36:39;;;;;;;4.88;1.77;;;11.20;99.90;;;;;;5045957;28;20017;-58
2021/11/06 12:39:04;;;;;;;6.72;2.72;;;11.30;99.90;;;;;;5040805;28;20032;-58
2021/11/06 12:41:34;;;;;;;5.82;2.72;;;11.30;99.90;;;;;;5044627;28;20043;-59